Brownwood, TX

12:47 PM CST on January 31, 2015 (GMT -0600)
Early | Change Station
CLOSE
Current Station
Personal Weather Station
Location: Early, TX
Elevation: 1407 ft
Nearby Weather Stations

Elev 1407 ft 31.74 °N, 98.94 °W | Updated 10 minutes ago

Rain
Rain
48.7 °F
Feels Like 48 °F
N
3.2
Wind Variable Wind from SE

Today
High -- | Low -- °F
--% Chance of Precip.
Yesterday
High -- | Low -- °F
Precip. -- in
7:29 AM 6:09 PM
Waxing Gibbous, 91% visible
Pressure 30.04 in
Visibility 2.5 miles
Clouds Few 600 ft
Scattered Clouds 1400 ft
Windchill 48 °F
Dew Point 45 °F
Humidity 87%
Rainfall 0.05 in
Snow Depth Not available.
UV 4 out of 12
Pollen 6.20 out of 12
Air Quality Not available.
Flu Activity Not available.
METAR KBWD 311835Z AUTO 14009KT 2 1/2SM BR FEW006 SCT014 09/09 A3004 RMK AO2 P0001

More Conditions Fewer Conditions

Pressure 30.04 in
Visibility 2.5 miles
Clouds Few 600 ft
Scattered Clouds 1400 ft
Windchill 48 °F
Dew Point 45 °F
Humidity 87%
Rainfall 0.05 in
Snow Depth Not available.
UV 4 out of 12
Pollen 6.20 out of 12
Air Quality Not available.
Flu Activity Not available.
METAR KBWD 311835Z AUTO 14009KT 2 1/2SM BR FEW006 SCT014 09/09 A3004 RMK AO2 P0001

More Conditions Fewer Conditions

Nowcast | as of 11:54 am CST on January 31, 2015

Areas of light to moderate rainfall will continue to move across the area through 2 PM. Additional rainfall amounts of 1/10 to 1/4 of an inch...with locally higher amounts...are possible. Visibilities may be reduced to near 2 miles at times...in areas of heavier rainfall.

×

10-Day Weather Forecast

Almanac

Astronomy

Jan. 31, 2015 Rise Set
Actual Time
Civil Twilight
Nautical Twilight
Astronomical Twilight
Moon
Length of Visible Light
Length of Day
Tomorrow will be .
, % of the Moon is Illuminated

Today's Extremes

State Highs State Lows

Community

WunderPhotos

Upload Photos

1,792,149 photos uploaded!

WunderBlogs® & News

Nearby

Air Quality

  Air Quality AQ Index Pollutant
Not available.

Snow Depth

Station Depth Elevation

Earthquake Activity

City Distance Mag. Time & Date
Minimum magnitude displayed is 2.5.

Coastal Water Temperatures

Place Temperature

Nearby Weather Stations